createdAt,value
2022-10-09T00:00:16.305Z,9.61
2022-10-09T00:02:44.459Z,9.57
2022-10-09T00:05:12.778Z,9.61
2022-10-09T00:07:40.855Z,9.56
2022-10-09T00:10:10.629Z,9.50
2022-10-09T00:12:38.944Z,9.46
2022-10-09T00:15:07.853Z,9.51
2022-10-09T00:17:35.943Z,9.47
2022-10-09T00:20:04.492Z,9.49
2022-10-09T00:22:32.512Z,9.41
2022-10-09T00:25:00.628Z,9.39
2022-10-09T00:27:30.029Z,9.34
2022-10-09T00:29:58.030Z,9.32
2022-10-09T00:32:26.246Z,9.24
2022-10-09T00:34:54.447Z,9.21
2022-10-09T00:37:22.536Z,9.19
2022-10-09T00:39:50.541Z,9.15
2022-10-09T00:42:18.536Z,9.08
2022-10-09T00:44:54.315Z,9.05
2022-10-09T00:47:26.618Z,8.99
2022-10-09T00:49:56.372Z,8.99
2022-10-09T00:52:25.295Z,9.04
2022-10-09T00:54:54.237Z,9.06
2022-10-09T00:57:22.482Z,9.05
2022-10-09T00:59:51.942Z,9.08
2022-10-09T01:02:20.102Z,9.06
2022-10-09T01:04:48.322Z,9.09
2022-10-09T01:07:25.865Z,8.95
2022-10-09T01:09:58.262Z,8.90
2022-10-09T01:12:33.237Z,8.83
2022-10-09T01:15:09.471Z,8.82
2022-10-09T01:17:42.211Z,8.81
2022-10-09T01:20:29.854Z,8.78
2022-10-09T01:27:31.970Z,8.79
2022-10-09T01:30:02.150Z,8.78
2022-10-09T01:32:32.805Z,8.76
2022-10-09T01:35:02.197Z,8.75
2022-10-09T01:37:31.979Z,8.69
2022-10-09T01:40:00.644Z,8.61
2022-10-09T01:42:30.547Z,8.54
2022-10-09T01:44:58.491Z,8.47
2022-10-09T01:47:26.637Z,8.45
2022-10-09T01:49:59.245Z,8.41
2022-10-09T01:52:37.076Z,8.38
2022-10-09T01:55:21.445Z,8.36
2022-10-09T01:57:53.697Z,8.35
2022-10-09T02:00:22.135Z,8.35
2022-10-09T02:02:51.600Z,8.37
2022-10-09T02:05:22.555Z,8.33
2022-10-09T02:07:50.799Z,8.31
2022-10-09T02:10:19.883Z,8.31
2022-10-09T02:12:52.092Z,8.28
2022-10-09T02:15:21.895Z,8.20
2022-10-09T02:17:50.981Z,8.19
2022-10-09T02:20:23.140Z,8.15
2022-10-09T02:22:51.439Z,8.19
2022-10-09T02:25:19.743Z,8.12
2022-10-09T02:27:48.390Z,8.08
2022-10-09T02:30:17.137Z,8.05
2022-10-09T02:32:46.896Z,8.06
2022-10-09T02:35:15.286Z,8.04
2022-10-09T02:37:43.285Z,8.03
2022-10-09T02:40:12.233Z,7.96
2022-10-09T02:42:40.208Z,8.01
2022-10-09T02:45:09.971Z,7.95
2022-10-09T02:47:38.645Z,7.93
2022-10-09T02:50:09.574Z,7.96
2022-10-09T02:52:37.668Z,7.90
2022-10-09T02:55:06.552Z,7.89
2022-10-09T02:57:34.560Z,7.90
2022-10-09T03:00:02.889Z,7.82
2022-10-09T03:02:31.135Z,7.81
2022-10-09T03:04:59.390Z,7.74
2022-10-09T03:07:28.904Z,7.76
2022-10-09T03:09:58.442Z,7.73
2022-10-09T03:12:26.779Z,7.71
2022-10-09T03:14:55.031Z,7.71
2022-10-09T03:17:23.324Z,7.78
2022-10-09T03:19:51.708Z,7.82
2022-10-09T03:22:20.092Z,7.82
2022-10-09T03:24:49.693Z,7.76
2022-10-09T03:27:17.865Z,7.76
2022-10-09T03:29:46.207Z,7.74
2022-10-09T03:32:14.598Z,7.74
2022-10-09T03:34:42.769Z,7.79
2022-10-09T03:37:10.773Z,7.78
2022-10-09T03:39:38.754Z,7.69
2022-10-09T03:42:08.240Z,7.67
2022-10-09T03:44:36.407Z,7.67
2022-10-09T03:47:04.492Z,7.69
2022-10-09T03:49:32.688Z,7.67
2022-10-09T03:52:00.838Z,7.70
2022-10-09T03:54:28.881Z,7.70
2022-10-09T03:56:56.904Z,7.69
2022-10-09T03:59:26.332Z,7.64
2022-10-09T04:01:54.551Z,7.61
2022-10-09T04:04:22.637Z,7.57
2022-10-09T04:06:50.820Z,7.53
2022-10-09T04:09:18.836Z,7.52
2022-10-09T04:11:46.797Z,7.53
2022-10-09T04:14:14.884Z,7.49
2022-10-09T04:16:44.418Z,7.54
2022-10-09T04:19:13.184Z,7.61
2022-10-09T04:21:41.669Z,7.65
2022-10-09T04:24:10.104Z,7.65
2022-10-09T04:26:38.599Z,7.63
2022-10-09T04:29:07.266Z,7.63
2022-10-09T04:31:35.868Z,7.67
2022-10-09T04:34:05.939Z,7.69
2022-10-09T04:36:34.265Z,7.70
2022-10-09T04:39:02.652Z,7.71
2022-10-09T04:41:34.614Z,7.72
2022-10-09T04:44:05.526Z,7.70
2022-10-09T04:46:33.604Z,7.72
2022-10-09T04:49:01.614Z,7.72
2022-10-09T04:51:30.967Z,7.70
2022-10-09T04:54:00.783Z,7.69
2022-10-09T04:56:29.006Z,7.68
2022-10-09T04:58:57.019Z,7.69
2022-10-09T05:01:28.102Z,7.69
2022-10-09T05:03:56.391Z,7.67
2022-10-09T05:06:25.416Z,7.63
2022-10-09T05:08:55.741Z,7.65
2022-10-09T05:11:25.571Z,7.60
2022-10-09T05:13:56.052Z,7.59
2022-10-09T05:16:26.708Z,7.63
2022-10-09T05:18:57.035Z,7.64
2022-10-09T05:21:25.938Z,7.60
2022-10-09T05:23:56.118Z,7.61
2022-10-09T05:26:25.963Z,7.60
2022-10-09T05:28:54.165Z,7.58
2022-10-09T05:31:24.455Z,7.60
2022-10-09T05:33:52.922Z,7.55
2022-10-09T05:36:21.051Z,7.58
2022-10-09T05:38:49.403Z,7.57
2022-10-09T05:41:20.072Z,7.60
2022-10-09T05:43:49.439Z,7.58
2022-10-09T05:46:19.011Z,7.56
2022-10-09T05:48:51.749Z,7.58
2022-10-09T05:51:22.240Z,7.60
2022-10-09T05:53:50.918Z,7.60
2022-10-09T05:56:21.471Z,7.59
2022-10-09T05:58:51.937Z,7.54
2022-10-09T06:01:20.545Z,7.49
2022-10-09T06:03:52.074Z,7.53
2022-10-09T06:06:21.393Z,7.55
2022-10-09T06:08:50.020Z,7.49
2022-10-09T06:11:21.170Z,7.51
2022-10-09T06:13:49.741Z,7.51
2022-10-09T06:16:19.452Z,7.53
2022-10-09T06:18:49.571Z,7.51
2022-10-09T06:21:18.308Z,7.55
2022-10-09T06:23:49.663Z,7.50
2022-10-09T06:26:17.772Z,7.50
2022-10-09T06:28:47.568Z,7.49
2022-10-09T06:31:17.639Z,7.52
2022-10-09T06:33:46.830Z,7.52
2022-10-09T06:36:17.259Z,7.46
2022-10-09T06:38:45.472Z,7.45
2022-10-09T06:41:14.958Z,7.48
2022-10-09T06:43:43.861Z,7.47
2022-10-09T06:46:13.760Z,7.51
2022-10-09T06:48:41.997Z,7.55
2022-10-09T06:51:11.829Z,7.56
2022-10-09T06:53:42.804Z,7.56
2022-10-09T06:56:11.469Z,7.59
2022-10-09T06:58:40.219Z,7.65
2022-10-09T07:01:09.841Z,7.68
2022-10-09T07:03:40.938Z,7.69
2022-10-09T07:06:11.215Z,7.66
2022-10-09T07:08:39.975Z,7.72
2022-10-09T07:11:11.917Z,7.72
2022-10-09T07:13:40.256Z,7.76
2022-10-09T07:16:08.568Z,7.82
2022-10-09T07:18:37.366Z,7.85
2022-10-09T07:21:09.033Z,7.88
2022-10-09T07:23:37.669Z,7.87
2022-10-09T07:26:11.762Z,7.92
2022-10-09T07:28:41.259Z,8.00
2022-10-09T07:31:10.201Z,8.04
2022-10-09T07:33:38.666Z,8.05
2022-10-09T07:36:09.017Z,8.08
2022-10-09T07:38:37.264Z,8.15
2022-10-09T07:41:06.941Z,8.16
2022-10-09T07:43:36.108Z,8.15
2022-10-09T07:46:05.870Z,8.22
2022-10-09T07:48:35.243Z,8.20
2022-10-09T07:51:10.512Z,8.24
2022-10-09T07:53:38.778Z,8.31
2022-10-09T07:56:07.408Z,8.35
2022-10-09T07:58:35.569Z,8.35
2022-10-09T08:01:07.599Z,8.39
2022-10-09T08:03:36.279Z,8.45
2022-10-09T08:06:04.668Z,8.51
2022-10-09T08:08:34.229Z,8.60
2022-10-09T08:11:02.690Z,8.63
2022-10-09T08:13:30.712Z,8.65
2022-10-09T08:15:59.588Z,8.73
2022-10-09T08:18:27.710Z,8.74
2022-10-09T08:20:59.681Z,8.81
2022-10-09T08:23:28.120Z,8.89
2022-10-09T08:25:57.686Z,8.96
2022-10-09T08:28:25.920Z,9.00
2022-10-09T08:30:54.106Z,9.06
2022-10-09T08:33:23.512Z,9.11
2022-10-09T08:35:51.938Z,9.18
2022-10-09T08:38:45.007Z,9.21
2022-10-09T08:41:11.438Z,9.25
2022-10-09T08:43:43.688Z,9.26
2022-10-09T08:46:20.575Z,9.33
2022-10-09T08:48:49.831Z,9.42
2022-10-09T08:51:23.300Z,9.46
2022-10-09T08:53:55.777Z,9.49
2022-10-09T08:56:26.479Z,9.55
2022-10-09T08:58:54.548Z,9.62
2022-10-09T09:01:29.229Z,9.67
2022-10-09T09:04:14.095Z,9.66
2022-10-09T09:06:47.706Z,9.82
2022-10-09T09:09:20.654Z,9.87
2022-10-09T09:11:54.086Z,9.91
2022-10-09T09:14:33.269Z,9.99
2022-10-09T09:17:07.482Z,10.07
2022-10-09T09:19:42.346Z,10.11
2022-10-09T09:22:11.719Z,10.20
2022-10-09T09:24:42.048Z,10.25
2022-10-09T09:27:15.784Z,10.31
2022-10-09T09:29:46.295Z,10.36
2022-10-09T09:32:19.067Z,10.41
2022-10-09T09:34:47.351Z,10.46
2022-10-09T09:37:15.825Z,10.53
2022-10-09T09:42:33.965Z,10.58
2022-10-09T09:45:06.019Z,10.71
2022-10-09T09:47:35.570Z,10.79
2022-10-09T09:50:05.765Z,10.89
2022-10-09T09:52:36.512Z,10.90
2022-10-09T09:55:05.406Z,10.97
2022-10-09T09:57:37.227Z,11.10
2022-10-09T10:00:10.785Z,11.10
2022-10-09T10:02:38.797Z,11.15
2022-10-09T10:05:18.848Z,11.27
2022-10-09T10:07:50.027Z,11.28
2022-10-09T10:10:24.689Z,11.34
2022-10-09T10:12:59.987Z,11.46
2022-10-09T10:15:30.233Z,11.50
2022-10-09T10:18:04.098Z,11.62
2022-10-09T10:20:34.000Z,11.66
2022-10-09T10:23:02.319Z,11.75
2022-10-09T10:25:33.461Z,11.74
2022-10-09T10:28:07.278Z,11.89
2022-10-09T10:30:36.339Z,11.92
2022-10-09T10:33:07.402Z,12.00
2022-10-09T10:35:37.836Z,12.02
2022-10-09T10:38:19.315Z,12.12
2022-10-09T10:41:13.474Z,12.25
2022-10-09T10:43:46.102Z,12.25
2022-10-09T10:46:23.773Z,12.23
2022-10-09T10:48:52.267Z,12.28
2022-10-09T10:51:32.451Z,12.41
2022-10-09T10:54:08.694Z,12.54
2022-10-09T10:56:39.536Z,12.52
2022-10-09T10:59:24.671Z,12.56
2022-10-09T11:02:00.723Z,12.60
2022-10-09T11:04:38.519Z,12.69
2022-10-09T11:07:14.579Z,12.68
2022-10-09T11:09:50.520Z,12.73
2022-10-09T11:12:43.710Z,12.84
2022-10-09T11:15:21.200Z,12.92
2022-10-09T11:17:55.831Z,12.95
2022-10-09T11:20:53.493Z,12.98
2022-10-09T11:23:52.364Z,13.13
2022-10-09T11:26:27.935Z,13.24
2022-10-09T11:29:00.568Z,13.26
2022-10-09T11:31:34.328Z,13.21
2022-10-09T11:34:06.882Z,13.24
2022-10-09T11:36:38.243Z,13.22
2022-10-09T11:39:09.303Z,13.27
2022-10-09T11:41:38.209Z,13.29
2022-10-09T11:44:19.647Z,13.27
2022-10-09T11:46:51.147Z,13.38
2022-10-09T11:49:23.682Z,13.37
2022-10-09T11:51:57.035Z,13.35
2022-10-09T11:54:27.424Z,13.42
2022-10-09T11:56:57.498Z,13.48
2022-10-09T11:59:30.099Z,13.46
2022-10-09T12:02:00.789Z,13.52
2022-10-09T12:04:50.575Z,13.55
2022-10-09T12:07:28.818Z,13.60
2022-10-09T12:10:00.728Z,13.62
2022-10-09T12:12:30.376Z,13.65
2022-10-09T12:14:58.439Z,13.72
2022-10-09T12:17:38.424Z,13.71
2022-10-09T12:20:09.320Z,13.76
2022-10-09T12:22:41.424Z,13.79
2022-10-09T12:25:16.909Z,13.85
2022-10-09T12:27:45.888Z,13.85
2022-10-09T12:30:20.681Z,13.88
2022-10-09T12:32:53.606Z,13.93
2022-10-09T12:35:24.000Z,13.94
2022-10-09T12:37:52.366Z,13.96
2022-10-09T12:40:24.591Z,13.99
2022-10-09T12:42:53.971Z,13.97
2022-10-09T12:45:23.759Z,13.99
2022-10-09T12:47:53.990Z,14.05
2022-10-09T12:50:25.102Z,14.01
2022-10-09T12:52:55.139Z,14.01
2022-10-09T12:55:27.761Z,13.94
2022-10-09T12:57:58.474Z,14.05
2022-10-09T13:00:26.569Z,14.05
2022-10-09T13:02:56.459Z,14.18
2022-10-09T13:05:24.700Z,14.19
2022-10-09T13:07:54.157Z,14.15
2022-10-09T13:10:24.066Z,14.14
2022-10-09T13:12:54.340Z,14.19
2022-10-09T13:15:46.597Z,14.20
2022-10-09T13:18:21.943Z,14.29
2022-10-09T13:20:59.762Z,14.38
2022-10-09T13:23:29.916Z,14.35
2022-10-09T13:26:01.213Z,14.40
2022-10-09T13:28:31.766Z,14.38
2022-10-09T13:31:07.323Z,14.39
2022-10-09T13:33:36.925Z,14.54
2022-10-09T13:36:05.100Z,14.54
2022-10-09T13:38:35.086Z,14.53
2022-10-09T13:41:03.641Z,14.56
2022-10-09T13:43:31.746Z,14.53
2022-10-09T13:46:00.188Z,14.44
2022-10-09T13:48:29.497Z,14.43
2022-10-09T13:50:59.894Z,14.38
2022-10-09T13:53:28.962Z,14.36
2022-10-09T13:56:00.760Z,14.39
2022-10-09T13:58:29.519Z,14.35
2022-10-09T14:00:58.159Z,14.39
2022-10-09T14:03:26.190Z,14.39
2022-10-09T14:06:00.460Z,14.43
2022-10-09T14:08:28.605Z,14.47
2022-10-09T14:10:56.985Z,14.48
2022-10-09T14:13:24.992Z,14.44
2022-10-09T14:15:53.218Z,14.43
2022-10-09T14:18:21.337Z,14.43
2022-10-09T14:20:49.354Z,14.41
2022-10-09T14:23:18.737Z,14.30
2022-10-09T14:25:46.709Z,14.36
2022-10-09T14:28:14.768Z,14.31
2022-10-09T14:30:43.401Z,14.24
2022-10-09T14:33:12.579Z,14.32
2022-10-09T14:35:40.710Z,14.26
2022-10-09T14:38:08.725Z,14.26
2022-10-09T14:40:42.768Z,14.27
2022-10-09T14:43:10.971Z,14.17
2022-10-09T14:45:39.334Z,14.19
2022-10-09T14:48:07.401Z,14.29
2022-10-09T14:50:36.669Z,14.36
2022-10-09T14:53:04.859Z,14.25
2022-10-09T14:55:35.540Z,14.20
2022-10-09T14:58:04.875Z,14.15
2022-10-09T15:00:32.984Z,14.15
2022-10-09T15:03:00.970Z,14.17
2022-10-09T15:05:29.134Z,14.10
2022-10-09T15:07:57.151Z,14.13
2022-10-09T15:10:25.173Z,14.03
2022-10-09T15:12:53.194Z,14.08
2022-10-09T15:15:22.645Z,14.07
2022-10-09T15:17:50.849Z,14.08
2022-10-09T15:20:19.083Z,14.06
2022-10-09T15:22:47.125Z,14.09
2022-10-09T15:25:16.722Z,14.01
2022-10-09T15:27:44.918Z,14.08
2022-10-09T15:30:13.621Z,14.13
2022-10-09T15:32:43.045Z,14.06
2022-10-09T15:35:11.265Z,14.12
2022-10-09T15:37:39.387Z,14.09
2022-10-09T15:40:08.534Z,13.97
2022-10-09T15:42:37.266Z,13.98
2022-10-09T15:45:05.898Z,13.91
2022-10-09T15:47:50.553Z,13.82
2022-10-09T15:50:20.749Z,13.80
2022-10-09T15:52:49.036Z,13.79
2022-10-09T15:55:17.417Z,13.80
2022-10-09T15:57:45.394Z,13.86
2022-10-09T16:00:14.540Z,13.83
2022-10-09T16:02:42.588Z,13.80
2022-10-09T16:05:10.842Z,13.80
2022-10-09T16:07:41.363Z,13.82
2022-10-09T16:10:09.906Z,13.82
2022-10-09T16:12:37.948Z,13.84
2022-10-09T16:15:06.689Z,13.80
2022-10-09T16:17:34.772Z,13.74
2022-10-09T16:20:02.885Z,13.73
2022-10-09T16:22:31.103Z,13.63
2022-10-09T16:25:00.486Z,13.64
2022-10-09T16:27:28.546Z,13.71
2022-10-09T16:29:56.560Z,13.74
2022-10-09T16:32:24.574Z,13.65
2022-10-09T16:34:52.562Z,13.67
2022-10-09T16:37:20.582Z,13.71
2022-10-09T16:39:49.446Z,13.78
2022-10-09T16:42:18.872Z,13.76
2022-10-09T16:44:46.908Z,13.73
2022-10-09T16:47:15.087Z,13.77
2022-10-09T16:49:43.147Z,13.70
2022-10-09T16:52:11.248Z,13.70
2022-10-09T16:54:39.943Z,13.75
2022-10-09T16:57:07.989Z,13.78
2022-10-09T16:59:37.427Z,13.78
2022-10-09T17:02:05.620Z,13.75
2022-10-09T17:04:34.302Z,13.69
2022-10-09T17:07:02.372Z,13.64
2022-10-09T17:09:30.790Z,13.64
2022-10-09T17:11:59.118Z,13.58
2022-10-09T17:14:27.156Z,13.57
2022-10-09T17:16:56.562Z,13.54
2022-10-09T17:19:24.652Z,13.55
2022-10-09T17:21:52.737Z,13.45
2022-10-09T17:24:20.810Z,13.44
2022-10-09T17:26:48.871Z,13.44
2022-10-09T17:29:16.943Z,13.39
2022-10-09T17:31:44.982Z,13.22
2022-10-09T17:34:14.563Z,13.26
2022-10-09T17:36:43.584Z,13.17
2022-10-09T17:39:14.488Z,13.03
2022-10-09T17:41:45.666Z,13.02
2022-10-09T17:44:15.133Z,12.97
2022-10-09T17:46:43.645Z,12.93
2022-10-09T17:49:11.895Z,12.86
2022-10-09T17:51:41.528Z,12.91
2022-10-09T17:54:12.498Z,12.86
2022-10-09T17:56:41.089Z,12.87
2022-10-09T17:59:09.593Z,12.82
2022-10-09T18:01:37.826Z,12.85
2022-10-09T18:04:06.066Z,12.82
2022-10-09T18:06:35.626Z,12.81
2022-10-09T18:09:05.900Z,12.77
2022-10-09T18:11:33.970Z,12.72
2022-10-09T18:14:02.029Z,12.63
2022-10-09T18:16:35.761Z,12.69
2022-10-09T18:19:06.345Z,12.70
2022-10-09T18:21:35.723Z,12.70
2022-10-09T18:24:05.861Z,12.70
2022-10-09T18:26:34.646Z,12.68
2022-10-09T18:29:03.364Z,12.65
2022-10-09T18:31:32.137Z,12.56
2022-10-09T18:34:00.571Z,12.54
2022-10-09T18:36:31.612Z,12.52
2022-10-09T18:39:01.806Z,12.53
2022-10-09T18:41:31.421Z,12.46
2022-10-09T18:44:03.183Z,12.46
2022-10-09T18:46:36.153Z,12.43
2022-10-09T18:49:09.202Z,12.44
2022-10-09T18:51:38.329Z,12.39
2022-10-09T18:54:07.847Z,12.42
2022-10-09T18:56:38.215Z,12.37
2022-10-09T18:59:08.450Z,12.34
2022-10-09T19:01:36.691Z,12.30
2022-10-09T19:04:04.847Z,12.25
2022-10-09T19:06:32.891Z,12.21
2022-10-09T19:09:01.594Z,12.19
2022-10-09T19:11:30.421Z,12.18
2022-10-09T19:14:00.807Z,12.10
2022-10-09T19:16:29.536Z,12.02
2022-10-09T19:18:57.581Z,12.00
2022-10-09T19:21:26.019Z,12.04
2022-10-09T19:23:54.757Z,12.03
2022-10-09T19:26:23.451Z,12.00
2022-10-09T19:28:51.948Z,11.99
2022-10-09T19:31:21.448Z,11.94
2022-10-09T19:33:49.454Z,11.90
2022-10-09T19:36:17.593Z,11.90
2022-10-09T19:38:45.656Z,11.90
2022-10-09T19:41:15.491Z,11.89
2022-10-09T19:43:43.915Z,11.85
2022-10-09T19:46:14.302Z,11.84
2022-10-09T19:48:44.132Z,11.80
2022-10-09T19:51:14.064Z,11.78
2022-10-09T19:53:42.333Z,11.76
2022-10-09T19:56:11.639Z,11.69
2022-10-09T19:58:41.206Z,11.67
2022-10-09T20:01:11.276Z,11.64
2022-10-09T20:03:41.413Z,11.61
2022-10-09T20:06:11.335Z,11.59
2022-10-09T20:08:40.886Z,11.56
2022-10-09T20:11:12.437Z,11.55
2022-10-09T20:13:41.893Z,11.52
2022-10-09T20:16:12.370Z,11.49
2022-10-09T20:18:42.297Z,11.49
2022-10-09T20:21:12.953Z,11.46
2022-10-09T20:23:41.248Z,11.49
2022-10-09T20:26:12.459Z,11.46
2022-10-09T20:28:40.927Z,11.45
2022-10-09T20:31:11.745Z,11.43
2022-10-09T20:33:40.132Z,11.41
2022-10-09T20:36:17.521Z,11.42
2022-10-09T20:38:45.522Z,11.38
2022-10-09T20:41:13.524Z,11.36
2022-10-09T20:43:41.582Z,11.34
2022-10-09T20:46:10.346Z,11.30
2022-10-09T20:48:38.385Z,11.30
2022-10-09T20:51:06.839Z,11.26
2022-10-09T20:53:36.395Z,11.23
2022-10-09T20:56:06.699Z,11.21
2022-10-09T20:58:35.320Z,11.23
2022-10-09T21:01:05.950Z,11.21
2022-10-09T21:03:34.536Z,11.16
2022-10-09T21:06:27.803Z,11.10
2022-10-09T21:08:58.138Z,11.08
2022-10-09T21:11:26.212Z,11.05
2022-10-09T21:13:54.256Z,11.01
2022-10-09T21:16:24.132Z,10.95
2022-10-09T21:18:55.249Z,10.96
2022-10-09T21:21:23.349Z,10.96
2022-10-09T21:23:51.913Z,10.95
2022-10-09T21:26:22.199Z,10.93
2022-10-09T21:28:52.442Z,10.92
2022-10-09T21:31:26.315Z,10.91
2022-10-09T21:33:54.287Z,10.91
2022-10-09T21:36:27.485Z,10.91
2022-10-09T21:38:55.466Z,10.88
2022-10-09T21:41:24.962Z,10.87
2022-10-09T21:43:52.958Z,10.84
2022-10-09T21:46:20.987Z,10.85
2022-10-09T21:48:48.965Z,10.83
2022-10-09T21:51:17.122Z,10.80
2022-10-09T21:53:45.159Z,10.77
2022-10-09T21:56:13.452Z,10.75
2022-10-09T21:58:48.130Z,10.72
2022-10-09T22:01:17.291Z,10.70
2022-10-09T22:03:45.468Z,10.65
2022-10-09T22:06:18.880Z,10.67
2022-10-09T22:08:47.982Z,10.66
2022-10-09T22:11:16.610Z,10.64
2022-10-09T22:13:46.096Z,10.62
2022-10-09T22:16:16.216Z,10.57
2022-10-09T22:18:44.571Z,10.60
2022-10-09T22:21:14.755Z,10.58
2022-10-09T22:23:43.060Z,10.56
2022-10-09T22:26:13.235Z,10.53
2022-10-09T22:28:41.362Z,10.55
2022-10-09T22:31:14.644Z,10.54
2022-10-09T22:33:43.215Z,10.52
2022-10-09T22:36:13.232Z,10.52
2022-10-09T22:38:41.938Z,10.53
2022-10-09T22:41:10.948Z,10.50
2022-10-09T22:43:40.193Z,10.51
2022-10-09T22:46:11.405Z,10.49
2022-10-09T22:48:40.486Z,10.48
2022-10-09T22:51:10.808Z,10.49
2022-10-09T22:53:39.739Z,10.49
2022-10-09T22:56:09.326Z,10.47
2022-10-09T22:58:37.334Z,10.48
2022-10-09T23:01:07.511Z,10.49
2022-10-09T23:03:36.912Z,10.45
2022-10-09T23:06:09.511Z,10.42
2022-10-09T23:08:38.734Z,10.39
2022-10-09T23:11:07.018Z,10.37
2022-10-09T23:13:35.361Z,10.35
2022-10-09T23:16:04.794Z,10.36
2022-10-09T23:18:33.371Z,10.35
2022-10-09T23:21:04.970Z,10.31
2022-10-09T23:23:34.074Z,10.30
2022-10-09T23:26:04.931Z,10.28
2022-10-09T23:28:33.013Z,10.26
2022-10-09T23:31:04.805Z,10.27
2022-10-09T23:33:32.850Z,10.27
2022-10-09T23:36:04.433Z,10.30
2022-10-09T23:38:32.418Z,10.24
2022-10-09T23:41:02.249Z,10.18
2022-10-09T23:43:30.872Z,10.19
2022-10-09T23:46:00.077Z,10.18
2022-10-09T23:48:28.668Z,10.17
2022-10-09T23:50:57.304Z,10.13
2022-10-09T23:53:27.494Z,10.12
2022-10-09T23:55:56.082Z,10.14
2022-10-09T23:58:24.574Z,10.08
